createdAt,value
2023-03-24T00:01:17.706Z,12.18
2023-03-24T00:03:44.136Z,12.18
2023-03-24T00:06:11.136Z,12.18
2023-03-24T00:08:37.437Z,12.17
2023-03-24T00:11:05.665Z,12.16
2023-03-24T00:13:33.148Z,12.15
2023-03-24T00:15:59.517Z,12.14
2023-03-24T00:18:26.325Z,12.12
2023-03-24T00:20:53.051Z,12.10
2023-03-24T00:23:19.382Z,12.08
2023-03-24T00:25:45.786Z,12.07
2023-03-24T00:28:12.088Z,12.07
2023-03-24T00:30:40.939Z,12.06
2023-03-24T00:33:07.328Z,12.03
2023-03-24T00:35:33.740Z,12.02
2023-03-24T00:38:00.116Z,12.01
2023-03-24T00:40:27.273Z,11.98
2023-03-24T00:42:53.612Z,11.95
2023-03-24T00:45:20.873Z,11.94
2023-03-24T00:47:48.067Z,11.92
2023-03-24T00:50:15.901Z,11.92
2023-03-24T00:52:42.699Z,11.91
2023-03-24T00:55:10.424Z,11.91
2023-03-24T00:57:37.038Z,11.90
2023-03-24T01:00:05.374Z,11.89
2023-03-24T01:02:31.734Z,11.89
2023-03-24T01:04:58.869Z,11.89
2023-03-24T01:07:26.712Z,11.89
2023-03-24T01:09:53.419Z,11.89
2023-03-24T01:12:20.183Z,11.89
2023-03-24T01:14:46.578Z,11.90
2023-03-24T01:17:12.931Z,11.89
2023-03-24T01:19:39.296Z,11.89
2023-03-24T01:22:05.779Z,11.87
2023-03-24T01:24:32.656Z,11.86
2023-03-24T01:26:59.142Z,11.85
2023-03-24T01:29:25.445Z,11.85
2023-03-24T01:31:51.934Z,11.85
2023-03-24T01:34:18.288Z,11.85
2023-03-24T01:36:44.684Z,11.85
2023-03-24T01:39:11.085Z,11.86
2023-03-24T01:41:39.143Z,11.86
2023-03-24T01:44:27.366Z,11.87
2023-03-24T01:46:54.438Z,11.86
2023-03-24T01:49:21.978Z,11.86
2023-03-24T01:51:50.106Z,11.85
2023-03-24T01:54:16.452Z,11.85
2023-03-24T01:56:45.312Z,11.84
2023-03-24T01:59:17.286Z,11.83
2023-03-24T02:01:52.998Z,11.81
2023-03-24T02:04:44.277Z,11.78
2023-03-24T02:07:37.626Z,11.77
2023-03-24T02:10:12.785Z,11.76
2023-03-24T02:12:40.075Z,11.75
2023-03-24T02:15:07.538Z,11.74
2023-03-24T02:17:34.740Z,11.75
2023-03-24T02:20:20.053Z,11.75
2023-03-24T02:23:05.500Z,11.77
2023-03-24T02:25:55.097Z,11.78
2023-03-24T02:28:30.660Z,11.78
2023-03-24T02:31:12.632Z,11.79
2023-03-24T02:33:53.559Z,11.79
2023-03-24T02:36:43.322Z,11.79
2023-03-24T02:39:28.259Z,11.79
2023-03-24T02:41:57.683Z,11.79
2023-03-24T02:44:53.677Z,11.79
2023-03-24T02:47:32.323Z,11.80
2023-03-24T02:49:58.629Z,11.81
2023-03-24T02:52:46.588Z,11.83
2023-03-24T02:55:19.929Z,11.83
2023-03-24T02:57:53.580Z,11.84
2023-03-24T03:00:44.270Z,11.85
2023-03-24T03:03:22.617Z,11.86
2023-03-24T03:05:55.856Z,11.86
2023-03-24T03:08:26.669Z,11.86
2023-03-24T03:10:54.277Z,11.86
2023-03-24T03:13:26.133Z,11.86
2023-03-24T03:15:55.777Z,11.85
2023-03-24T03:18:33.476Z,11.84
2023-03-24T03:21:03.928Z,11.84
2023-03-24T03:23:38.971Z,11.84
2023-03-24T03:26:09.422Z,11.84
2023-03-24T03:28:37.751Z,11.82
2023-03-24T03:31:10.105Z,11.81
2023-03-24T03:33:39.752Z,11.79
2023-03-24T03:36:08.956Z,11.77
2023-03-24T03:38:41.551Z,11.76
2023-03-24T03:41:07.961Z,11.75
2023-03-24T03:43:35.755Z,11.73
2023-03-24T03:46:03.401Z,11.71
2023-03-24T03:48:33.448Z,11.68
2023-03-24T03:51:12.384Z,11.65
2023-03-24T03:53:56.897Z,11.61
2023-03-24T03:56:25.190Z,11.59
2023-03-24T03:59:22.239Z,11.56
2023-03-24T04:01:48.887Z,11.53
2023-03-24T04:04:35.539Z,11.50
2023-03-24T04:07:39.090Z,11.48
2023-03-24T04:10:51.077Z,11.46
2023-03-24T04:13:30.311Z,11.45
2023-03-24T04:16:17.103Z,11.44
2023-03-24T04:19:07.125Z,11.41
2023-03-24T04:21:51.977Z,11.40
2023-03-24T04:24:28.286Z,11.38
2023-03-24T04:27:06.346Z,11.36
2023-03-24T04:29:38.431Z,11.36
2023-03-24T04:32:04.820Z,11.35
2023-03-24T04:34:31.306Z,11.35
2023-03-24T04:37:14.289Z,11.36
2023-03-24T04:40:00.962Z,11.37
2023-03-24T04:42:32.071Z,11.37
2023-03-24T04:44:59.195Z,11.38
2023-03-24T04:47:57.695Z,11.38
2023-03-24T04:50:30.962Z,11.38
2023-03-24T04:52:58.705Z,11.38
2023-03-24T04:55:46.788Z,11.38
2023-03-24T04:58:13.222Z,11.38
2023-03-24T05:00:40.904Z,11.38
2023-03-24T05:03:07.327Z,11.38
2023-03-24T05:05:33.981Z,11.38
2023-03-24T05:08:00.468Z,11.39
2023-03-24T05:10:27.859Z,11.39
2023-03-24T05:12:55.123Z,11.40
2023-03-24T05:15:43.502Z,11.41
2023-03-24T05:18:24.623Z,11.42
2023-03-24T05:20:50.966Z,11.44
2023-03-24T05:23:19.791Z,11.46
2023-03-24T05:25:47.171Z,11.48
2023-03-24T05:28:14.408Z,11.51
2023-03-24T05:30:40.775Z,11.53
2023-03-24T05:33:18.271Z,11.56
2023-03-24T05:35:44.856Z,11.57
2023-03-24T05:38:11.356Z,11.60
2023-03-24T05:40:39.350Z,11.63
2023-03-24T05:43:11.314Z,11.65
2023-03-24T05:45:40.957Z,11.67
2023-03-24T05:48:07.546Z,11.69
2023-03-24T05:51:03.259Z,11.72
2023-03-24T05:53:29.573Z,11.75
2023-03-24T05:56:09.067Z,11.80
2023-03-24T05:58:55.695Z,11.86
2023-03-24T06:01:22.748Z,11.94
2023-03-24T06:03:52.637Z,12.01
2023-03-24T06:06:19.093Z,12.08
2023-03-24T06:08:45.993Z,12.14
2023-03-24T06:11:13.063Z,12.19
2023-03-24T06:13:47.489Z,12.26
2023-03-24T06:16:13.870Z,12.33
2023-03-24T06:18:52.675Z,12.38
2023-03-24T06:21:39.089Z,12.47
2023-03-24T06:24:05.634Z,12.56
2023-03-24T06:26:32.624Z,12.66
2023-03-24T06:28:59.680Z,12.77
2023-03-24T06:31:29.885Z,12.89
2023-03-24T06:33:56.199Z,13.05
2023-03-24T06:36:22.571Z,13.22
2023-03-24T06:41:17.852Z,13.55
2023-03-24T06:43:44.546Z,13.73
2023-03-24T06:46:11.301Z,13.90
2023-03-24T06:48:39.601Z,14.05
2023-03-24T06:51:07.093Z,14.16
2023-03-24T06:53:33.813Z,14.28
2023-03-24T06:56:00.248Z,14.40
2023-03-24T06:58:29.296Z,14.51
2023-03-24T07:01:04.410Z,14.61
2023-03-24T07:03:49.386Z,14.71
2023-03-24T07:06:16.851Z,14.78
2023-03-24T07:08:43.582Z,14.89
2023-03-24T07:11:10.354Z,14.99
2023-03-24T07:13:38.557Z,15.08
2023-03-24T07:16:05.097Z,15.17
2023-03-24T07:18:32.573Z,15.23
2023-03-24T07:21:03.125Z,15.28
2023-03-24T07:23:29.966Z,15.33
2023-03-24T07:26:00.440Z,15.40
2023-03-24T07:28:35.774Z,15.50
2023-03-24T07:31:05.529Z,15.60
2023-03-24T07:33:32.335Z,15.70
2023-03-24T07:35:58.718Z,15.77
2023-03-24T07:38:25.602Z,15.77
2023-03-24T07:40:54.020Z,15.72
2023-03-24T07:43:20.663Z,15.63
2023-03-24T07:46:15.908Z,15.54
2023-03-24T07:48:42.339Z,15.48
2023-03-24T07:51:09.144Z,15.45
2023-03-24T07:53:50.225Z,15.46
2023-03-24T07:56:35.081Z,15.49
2023-03-24T07:59:01.823Z,15.50
2023-03-24T08:01:31.486Z,15.50
2023-03-24T08:04:01.034Z,15.51
2023-03-24T08:06:57.305Z,15.56
2023-03-24T08:09:23.768Z,15.63
2023-03-24T08:11:50.089Z,15.73
2023-03-24T08:14:16.591Z,15.83
2023-03-24T08:16:42.899Z,15.92
2023-03-24T08:19:10.846Z,15.99
2023-03-24T08:21:37.228Z,16.08
2023-03-24T08:24:03.595Z,16.17
2023-03-24T08:26:29.939Z,16.26
2023-03-24T08:28:56.304Z,16.36
2023-03-24T08:31:22.772Z,16.47
2023-03-24T08:33:49.225Z,16.58
2023-03-24T08:36:15.867Z,16.72
2023-03-24T08:38:42.197Z,16.85
2023-03-24T08:41:08.638Z,16.97
2023-03-24T08:43:35.506Z,17.11
2023-03-24T08:46:02.263Z,17.28
2023-03-24T08:48:29.372Z,17.42
2023-03-24T08:50:57.299Z,17.56
2023-03-24T08:53:23.747Z,17.70
2023-03-24T08:55:50.236Z,17.89
2023-03-24T08:58:18.119Z,18.14
2023-03-24T09:00:44.987Z,18.41
2023-03-24T09:03:33.033Z,18.75
2023-03-24T09:06:02.743Z,19.11
2023-03-24T09:08:29.313Z,19.44
2023-03-24T09:11:07.280Z,19.71
2023-03-24T09:13:33.990Z,19.92
2023-03-24T09:16:01.362Z,20.11
2023-03-24T09:18:28.764Z,20.28
2023-03-24T09:21:00.862Z,20.40
2023-03-24T09:23:28.858Z,20.43
2023-03-24T09:25:55.259Z,20.47
2023-03-24T09:28:21.872Z,20.51
2023-03-24T09:30:49.291Z,20.54
2023-03-24T09:33:15.966Z,20.49
2023-03-24T09:35:42.402Z,20.50
2023-03-24T09:38:08.757Z,20.54
2023-03-24T09:40:36.392Z,20.60
2023-03-24T09:43:04.796Z,20.67
2023-03-24T09:45:33.382Z,20.71
2023-03-24T09:48:02.544Z,20.73
2023-03-24T09:50:41.252Z,20.83
2023-03-24T09:53:26.195Z,21.07
2023-03-24T09:55:52.627Z,21.28
2023-03-24T09:58:19.461Z,21.41
2023-03-24T10:00:46.367Z,21.56
2023-03-24T10:03:22.804Z,21.67
2023-03-24T10:05:53.493Z,21.81
2023-03-24T10:08:36.520Z,22.03
2023-03-24T10:11:06.862Z,22.20
2023-03-24T10:13:47.401Z,22.31
2023-03-24T10:16:25.615Z,22.43
2023-03-24T10:18:58.697Z,22.67
2023-03-24T10:21:25.935Z,22.96
2023-03-24T10:24:11.235Z,23.19
2023-03-24T10:26:56.313Z,23.28
2023-03-24T10:29:26.060Z,23.45
2023-03-24T10:31:56.914Z,23.41
2023-03-24T10:34:26.532Z,23.38
2023-03-24T10:36:53.210Z,23.55
2023-03-24T10:39:22.675Z,23.70
2023-03-24T10:41:53.552Z,23.93
2023-03-24T10:44:20.549Z,24.16
2023-03-24T10:46:50.177Z,24.19
2023-03-24T10:49:18.676Z,24.02
2023-03-24T10:51:46.820Z,23.87
2023-03-24T10:54:20.559Z,23.75
2023-03-24T10:57:07.356Z,23.77
2023-03-24T10:59:45.027Z,23.61
2023-03-24T11:02:25.616Z,23.53
2023-03-24T11:04:56.997Z,23.58
2023-03-24T11:07:34.852Z,23.61
2023-03-24T11:10:04.953Z,23.76
2023-03-24T11:12:32.947Z,23.91
2023-03-24T11:15:21.137Z,23.96
2023-03-24T11:17:54.834Z,23.72
2023-03-24T11:20:29.210Z,23.41
2023-03-24T11:22:56.793Z,23.17
2023-03-24T11:25:36.611Z,22.97
2023-03-24T11:28:15.509Z,22.84
2023-03-24T11:30:49.523Z,22.75
2023-03-24T11:33:34.829Z,22.80
2023-03-24T11:36:08.366Z,22.86
2023-03-24T11:38:35.198Z,22.95
2023-03-24T11:41:02.206Z,23.09
2023-03-24T11:43:28.564Z,23.34
2023-03-24T11:46:16.717Z,23.68
2023-03-24T11:48:43.208Z,24.03
2023-03-24T11:51:09.611Z,24.24
2023-03-24T11:53:43.973Z,24.24
2023-03-24T11:56:16.709Z,24.42
2023-03-24T11:58:42.963Z,24.64
2023-03-24T12:01:16.109Z,24.75
2023-03-24T12:03:42.684Z,24.87
2023-03-24T12:06:24.472Z,24.92
2023-03-24T12:09:06.362Z,25.00
2023-03-24T12:11:39.092Z,25.09
2023-03-24T12:14:05.757Z,25.07
2023-03-24T12:16:40.302Z,25.09
2023-03-24T12:19:16.261Z,25.32
2023-03-24T12:22:01.647Z,25.39
2023-03-24T12:24:28.124Z,25.47
2023-03-24T12:26:59.323Z,25.75
2023-03-24T12:29:26.061Z,25.84
2023-03-24T12:31:55.471Z,25.71
2023-03-24T12:34:40.520Z,25.58
2023-03-24T12:37:13.399Z,25.41
2023-03-24T12:39:52.242Z,25.24
2023-03-24T12:42:20.002Z,25.31
2023-03-24T12:45:02.355Z,25.28
2023-03-24T12:47:31.561Z,25.17
2023-03-24T12:50:00.673Z,24.86
2023-03-24T12:52:39.214Z,24.69
2023-03-24T12:55:09.162Z,24.67
2023-03-24T12:57:48.325Z,24.49
2023-03-24T13:00:19.191Z,24.30
2023-03-24T13:02:49.365Z,24.05
2023-03-24T13:05:21.016Z,23.89
2023-03-24T13:07:48.648Z,23.70
2023-03-24T13:10:15.280Z,23.45
2023-03-24T13:12:47.908Z,23.15
2023-03-24T13:15:31.172Z,22.92
2023-03-24T13:17:57.648Z,22.70
2023-03-24T13:20:35.382Z,22.57
2023-03-24T13:23:22.016Z,22.42
2023-03-24T13:25:51.995Z,22.32
2023-03-24T13:28:24.475Z,22.25
2023-03-24T13:30:51.276Z,22.14
2023-03-24T13:33:21.262Z,22.03
2023-03-24T13:36:03.072Z,21.85
2023-03-24T13:39:02.231Z,21.64
2023-03-24T13:41:31.444Z,21.38
2023-03-24T13:43:57.744Z,21.23
2023-03-24T13:46:24.283Z,21.06
2023-03-24T13:48:53.354Z,20.86
2023-03-24T13:51:19.901Z,20.68
2023-03-24T13:54:00.927Z,20.52
2023-03-24T13:56:35.164Z,20.40
2023-03-24T13:59:01.891Z,20.35
2023-03-24T14:01:38.845Z,20.28
2023-03-24T14:04:14.662Z,20.19
2023-03-24T14:06:44.800Z,20.08
2023-03-24T14:09:19.606Z,19.96
2023-03-24T14:12:08.508Z,19.87
2023-03-24T14:14:36.362Z,19.77
2023-03-24T14:17:05.769Z,19.70
2023-03-24T14:19:36.530Z,19.64
2023-03-24T14:22:08.891Z,19.55
2023-03-24T14:24:35.809Z,19.43
2023-03-24T14:27:20.551Z,19.31
2023-03-24T14:29:48.701Z,19.18
2023-03-24T14:32:20.142Z,19.10
2023-03-24T14:34:51.153Z,19.04
2023-03-24T14:37:17.744Z,19.01
2023-03-24T14:39:45.972Z,18.99
2023-03-24T14:42:31.252Z,18.97
2023-03-24T14:44:58.882Z,18.95
2023-03-24T14:47:29.171Z,18.92
2023-03-24T14:49:57.080Z,18.91
2023-03-24T14:52:29.804Z,18.94
2023-03-24T14:55:01.642Z,19.04
2023-03-24T14:57:34.022Z,19.13
2023-03-24T15:00:00.357Z,19.21
2023-03-24T15:02:27.230Z,19.31
2023-03-24T15:05:13.060Z,19.39
2023-03-24T15:07:40.630Z,19.42
2023-03-24T15:10:13.249Z,19.41
2023-03-24T15:12:46.750Z,19.37
2023-03-24T15:15:18.208Z,19.34
2023-03-24T15:17:44.973Z,19.28
2023-03-24T15:20:26.915Z,19.22
2023-03-24T15:22:53.668Z,19.12
2023-03-24T15:25:26.437Z,19.02
2023-03-24T15:27:53.311Z,18.89
2023-03-24T15:30:20.470Z,18.74
2023-03-24T15:32:46.962Z,18.57
2023-03-24T15:35:14.942Z,18.39
2023-03-24T15:37:42.619Z,18.23
2023-03-24T15:40:27.954Z,18.10
2023-03-24T15:42:55.438Z,17.96
2023-03-24T15:45:24.903Z,17.85
2023-03-24T15:47:52.800Z,17.74
2023-03-24T15:50:31.041Z,17.62
2023-03-24T15:52:58.288Z,17.50
2023-03-24T15:55:30.699Z,17.39
2023-03-24T15:57:58.658Z,17.29
2023-03-24T16:00:30.945Z,17.20
2023-03-24T16:03:00.856Z,17.13
2023-03-24T16:05:29.036Z,17.04
2023-03-24T16:08:00.367Z,16.96
2023-03-24T16:10:29.641Z,16.88
2023-03-24T16:12:55.978Z,16.77
2023-03-24T16:15:22.366Z,16.64
2023-03-24T16:17:49.450Z,16.48
2023-03-24T16:20:19.601Z,16.32
2023-03-24T16:22:45.900Z,16.17
2023-03-24T16:25:13.335Z,16.01
2023-03-24T16:27:39.624Z,15.87
2023-03-24T16:30:21.738Z,15.72
2023-03-24T16:32:48.251Z,15.56
2023-03-24T16:35:14.650Z,15.42
2023-03-24T16:37:41.078Z,15.30
2023-03-24T16:40:31.036Z,15.20
2023-03-24T16:42:57.376Z,15.08
2023-03-24T16:45:23.817Z,14.95
2023-03-24T16:47:50.282Z,14.83
2023-03-24T16:50:23.405Z,14.73
2023-03-24T16:52:49.929Z,14.64
2023-03-24T16:55:16.201Z,14.55
2023-03-24T16:57:42.996Z,14.47
2023-03-24T17:00:09.649Z,14.40
2023-03-24T17:02:36.591Z,14.35
2023-03-24T17:05:29.392Z,14.32
2023-03-24T17:07:57.114Z,14.26
2023-03-24T17:10:24.195Z,14.19
2023-03-24T17:12:52.178Z,14.14
2023-03-24T17:15:21.594Z,14.11
2023-03-24T17:17:48.114Z,14.08
2023-03-24T17:20:15.089Z,14.03
2023-03-24T17:22:42.384Z,14.02
2023-03-24T17:25:10.033Z,14.00
2023-03-24T17:27:36.450Z,14.00
2023-03-24T17:30:03.499Z,14.00
2023-03-24T17:32:30.520Z,14.00
2023-03-24T17:34:57.432Z,14.01
2023-03-24T17:37:26.589Z,14.03
2023-03-24T17:39:53.442Z,14.03
2023-03-24T17:42:19.867Z,14.02
2023-03-24T17:44:46.203Z,14.02
2023-03-24T17:47:12.605Z,13.99
2023-03-24T17:49:39.716Z,13.96
2023-03-24T17:52:06.150Z,13.92
2023-03-24T17:54:32.800Z,13.89
2023-03-24T17:56:59.496Z,13.87
2023-03-24T17:59:25.938Z,13.85
2023-03-24T18:01:52.343Z,13.83
2023-03-24T18:04:18.911Z,13.81
2023-03-24T18:06:45.260Z,13.79
2023-03-24T18:09:11.734Z,13.77
2023-03-24T18:11:39.382Z,13.73
2023-03-24T18:14:05.858Z,13.69
2023-03-24T18:16:32.234Z,13.65
2023-03-24T18:18:58.924Z,13.60
2023-03-24T18:21:25.409Z,13.56
2023-03-24T18:23:51.842Z,13.51
2023-03-24T18:26:18.820Z,13.46
2023-03-24T18:28:45.282Z,13.42
2023-03-24T18:31:12.946Z,13.38
2023-03-24T18:33:39.263Z,13.34
2023-03-24T18:36:05.817Z,13.30
2023-03-24T18:38:32.189Z,13.26
2023-03-24T18:40:59.508Z,13.24
2023-03-24T18:43:25.997Z,13.22
2023-03-24T18:45:53.025Z,13.20
2023-03-24T18:48:19.783Z,13.19
2023-03-24T18:50:46.317Z,13.17
2023-03-24T18:53:12.868Z,13.15
2023-03-24T18:55:46.561Z,13.13
2023-03-24T18:58:13.960Z,13.10
2023-03-24T19:00:48.845Z,13.09
2023-03-24T19:03:15.900Z,13.08
2023-03-24T19:05:42.433Z,13.04
2023-03-24T19:08:08.806Z,12.99
2023-03-24T19:10:36.032Z,12.94
2023-03-24T19:13:03.179Z,12.89
2023-03-24T19:15:30.625Z,12.83
2023-03-24T19:17:58.982Z,12.79
2023-03-24T19:20:26.170Z,12.76
2023-03-24T19:22:53.204Z,12.74
2023-03-24T19:25:20.187Z,12.73
2023-03-24T19:27:46.897Z,12.71
2023-03-24T19:30:13.530Z,12.68
2023-03-24T19:32:40.271Z,12.65
2023-03-24T19:35:07.040Z,12.62
2023-03-24T19:37:33.402Z,12.61
2023-03-24T19:40:00.240Z,12.59
2023-03-24T19:42:26.750Z,12.58
2023-03-24T19:44:53.160Z,12.56
2023-03-24T19:47:19.699Z,12.55
2023-03-24T19:49:46.054Z,12.55
2023-03-24T19:52:13.642Z,12.57
2023-03-24T19:54:41.022Z,12.57
2023-03-24T19:57:07.441Z,12.57
2023-03-24T19:59:33.940Z,12.58
2023-03-24T20:02:00.309Z,12.58
2023-03-24T20:04:26.678Z,12.57
2023-03-24T20:06:53.058Z,12.56
2023-03-24T20:09:19.459Z,12.57
2023-03-24T20:11:45.817Z,12.58
2023-03-24T20:14:12.213Z,12.59
2023-03-24T20:16:39.466Z,12.58
2023-03-24T20:19:05.984Z,12.56
2023-03-24T20:21:34.808Z,12.55
2023-03-24T20:24:01.144Z,12.55
2023-03-24T20:26:27.674Z,12.55
2023-03-24T20:28:54.275Z,12.54
2023-03-24T20:31:20.593Z,12.54
2023-03-24T20:33:46.955Z,12.53
2023-03-24T20:36:13.331Z,12.52
2023-03-24T20:38:39.750Z,12.50
2023-03-24T20:41:06.549Z,12.48
2023-03-24T20:43:34.701Z,12.46
2023-03-24T20:46:01.553Z,12.44
2023-03-24T20:48:27.944Z,12.41
2023-03-24T20:50:56.638Z,12.39
2023-03-24T20:53:23.011Z,12.36
2023-03-24T20:56:15.773Z,12.36
2023-03-24T20:58:43.271Z,12.36
2023-03-24T21:01:13.799Z,12.36
2023-03-24T21:03:40.086Z,12.36
2023-03-24T21:06:07.474Z,12.37
2023-03-24T21:08:33.818Z,12.39
2023-03-24T21:11:00.843Z,12.40
2023-03-24T21:13:36.930Z,12.40
2023-03-24T21:16:07.408Z,12.41
2023-03-24T21:18:35.600Z,12.44
2023-03-24T21:21:02.001Z,12.46
2023-03-24T21:23:29.323Z,12.48
2023-03-24T21:25:55.704Z,12.47
2023-03-24T21:28:22.049Z,12.45
2023-03-24T21:30:48.414Z,12.41
2023-03-24T21:33:14.845Z,12.37
2023-03-24T21:35:42.919Z,12.36
2023-03-24T21:38:09.439Z,12.35
2023-03-24T21:40:35.793Z,12.36
2023-03-24T21:43:02.256Z,12.38
2023-03-24T21:45:28.517Z,12.39
2023-03-24T21:47:55.505Z,12.40
2023-03-24T21:50:22.336Z,12.42
2023-03-24T21:52:53.199Z,12.44
2023-03-24T21:55:20.461Z,12.44
2023-03-24T21:57:47.665Z,12.45
2023-03-24T22:00:15.960Z,12.46
2023-03-24T22:02:43.615Z,12.47
2023-03-24T22:05:13.386Z,12.47
2023-03-24T22:07:40.747Z,12.49
2023-03-24T22:10:08.045Z,12.49
2023-03-24T22:12:34.908Z,12.50
2023-03-24T22:15:01.625Z,12.50
2023-03-24T22:17:28.741Z,12.49
2023-03-24T22:19:55.079Z,12.48
2023-03-24T22:22:21.475Z,12.45
2023-03-24T22:24:47.810Z,12.43
2023-03-24T22:27:14.125Z,12.40
2023-03-24T22:29:40.447Z,12.37
2023-03-24T22:32:06.871Z,12.34
2023-03-24T22:34:33.176Z,12.32
2023-03-24T22:36:59.455Z,12.28
2023-03-24T22:39:25.782Z,12.25
2023-03-24T22:41:52.156Z,12.24
2023-03-24T22:44:18.491Z,12.23
2023-03-24T22:46:44.811Z,12.23
2023-03-24T22:49:11.095Z,12.23
2023-03-24T22:51:37.419Z,12.25
2023-03-24T22:54:03.765Z,12.27
2023-03-24T22:56:30.091Z,12.29
2023-03-24T22:58:56.503Z,12.31
2023-03-24T23:01:22.960Z,12.33
2023-03-24T23:03:51.382Z,12.34
2023-03-24T23:06:17.683Z,12.35
2023-03-24T23:08:44.129Z,12.35
2023-03-24T23:11:10.971Z,12.34
2023-03-24T23:13:37.243Z,12.33
2023-03-24T23:16:04.670Z,12.33
2023-03-24T23:18:31.162Z,12.32
2023-03-24T23:21:04.942Z,12.32
2023-03-24T23:23:31.466Z,12.31
2023-03-24T23:25:57.780Z,12.28
2023-03-24T23:28:24.255Z,12.25
2023-03-24T23:30:51.143Z,12.20
2023-03-24T23:33:17.468Z,12.14
2023-03-24T23:35:43.990Z,12.10
2023-03-24T23:38:10.541Z,12.07
2023-03-24T23:40:36.918Z,12.07
2023-03-24T23:43:03.248Z,12.07
2023-03-24T23:45:29.682Z,12.07
2023-03-24T23:47:56.317Z,12.06
2023-03-24T23:50:22.901Z,12.04
2023-03-24T23:52:49.280Z,12.03
2023-03-24T23:55:16.362Z,12.01
2023-03-24T23:57:43.216Z,12.00
